sensor_id;sensor_type;location;lat;lon;timestamp;temperature;humidity
53208;DHT22;39093;52.788;6.940;2023-07-20T00:01:39;16.20;99.90
53208;DHT22;39093;52.788;6.940;2023-07-20T00:04:07;16.20;99.90
53208;DHT22;39093;52.788;6.940;2023-07-20T00:06:34;16.20;99.90
53208;DHT22;39093;52.788;6.940;2023-07-20T00:09:01;16.20;99.90
53208;DHT22;39093;52.788;6.940;2023-07-20T00:11:28;16.20;99.90
53208;DHT22;39093;52.788;6.940;2023-07-20T00:13:56;16.20;99.90
53208;DHT22;39093;52.788;6.940;2023-07-20T00:16:23;16.20;99.90
53208;DHT22;39093;52.788;6.940;2023-07-20T00:18:50;16.20;99.90
53208;DHT22;39093;52.788;6.940;2023-07-20T00:21:17;16.20;99.90
53208;DHT22;39093;52.788;6.940;2023-07-20T00:23:44;16.20;99.90
53208;DHT22;39093;52.788;6.940;2023-07-20T00:26:11;16.20;99.90
53208;DHT22;39093;52.788;6.940;2023-07-20T00:28:38;16.10;99.90
53208;DHT22;39093;52.788;6.940;2023-07-20T00:31:05;16.10;99.90
53208;DHT22;39093;52.788;6.940;2023-07-20T00:33:32;16.10;99.90
53208;DHT22;39093;52.788;6.940;2023-07-20T00:35:59;16.10;99.90
53208;DHT22;39093;52.788;6.940;2023-07-20T00:38:26;16.10;99.90
53208;DHT22;39093;52.788;6.940;2023-07-20T00:40:53;16.10;99.90
53208;DHT22;39093;52.788;6.940;2023-07-20T00:43:22;16.10;99.90
53208;DHT22;39093;52.788;6.940;2023-07-20T00:45:49;16.10;99.90
53208;DHT22;39093;52.788;6.940;2023-07-20T00:48:16;16.10;99.90
53208;DHT22;39093;52.788;6.940;2023-07-20T00:50:44;16.10;99.90
53208;DHT22;39093;52.788;6.940;2023-07-20T00:53:11;16.10;99.90
53208;DHT22;39093;52.788;6.940;2023-07-20T00:55:38;16.10;99.90
53208;DHT22;39093;52.788;6.940;2023-07-20T00:58:05;16.10;99.90
53208;DHT22;39093;52.788;6.940;2023-07-20T01:00:32;16.10;99.90
53208;DHT22;39093;52.788;6.940;2023-07-20T01:02:59;16.10;99.90
53208;DHT22;39093;52.788;6.940;2023-07-20T01:05:57;16.10;99.90
53208;DHT22;39093;52.788;6.940;2023-07-20T01:08:32;16.10;99.90
53208;DHT22;39093;52.788;6.940;2023-07-20T01:11:13;16.00;99.90
53208;DHT22;39093;52.788;6.940;2023-07-20T01:13:43;16.00;99.90
53208;DHT22;39093;52.788;6.940;2023-07-20T01:16:11;16.10;99.90
53208;DHT22;39093;52.788;6.940;2023-07-20T01:18:37;16.00;99.90
53208;DHT22;39093;52.788;6.940;2023-07-20T01:21:09;16.00;99.90
53208;DHT22;39093;52.788;6.940;2023-07-20T01:29:18;16.00;99.90
53208;DHT22;39093;52.788;6.940;2023-07-20T01:31:52;16.00;99.90
53208;DHT22;39093;52.788;6.940;2023-07-20T01:34:22;15.90;99.90
53208;DHT22;39093;52.788;6.940;2023-07-20T01:36:50;15.90;99.90
53208;DHT22;39093;52.788;6.940;2023-07-20T01:39:20;15.90;99.90
53208;DHT22;39093;52.788;6.940;2023-07-20T01:41:47;15.90;99.90
53208;DHT22;39093;52.788;6.940;2023-07-20T01:44:16;15.80;99.90
53208;DHT22;39093;52.788;6.940;2023-07-20T01:46:43;15.80;99.90
53208;DHT22;39093;52.788;6.940;2023-07-20T01:49:10;15.80;99.90
53208;DHT22;39093;52.788;6.940;2023-07-20T01:51:37;15.80;99.90
53208;DHT22;39093;52.788;6.940;2023-07-20T01:54:04;15.80;99.90
53208;DHT22;39093;52.788;6.940;2023-07-20T01:56:31;15.80;99.90
53208;DHT22;39093;52.788;6.940;2023-07-20T01:58:58;15.70;99.90
53208;DHT22;39093;52.788;6.940;2023-07-20T02:01:25;15.70;99.90
53208;DHT22;39093;52.788;6.940;2023-07-20T02:03:52;15.70;99.90
53208;DHT22;39093;52.788;6.940;2023-07-20T02:06:19;15.70;99.90
53208;DHT22;39093;52.788;6.940;2023-07-20T02:08:47;15.70;99.90
53208;DHT22;39093;52.788;6.940;2023-07-20T02:11:14;15.70;99.90
53208;DHT22;39093;52.788;6.940;2023-07-20T02:13:42;15.60;99.90
53208;DHT22;39093;52.788;6.940;2023-07-20T02:16:09;15.60;99.90
53208;DHT22;39093;52.788;6.940;2023-07-20T02:18:38;15.50;99.90
53208;DHT22;39093;52.788;6.940;2023-07-20T02:21:05;15.50;99.90
53208;DHT22;39093;52.788;6.940;2023-07-20T02:23:31;15.40;99.90
53208;DHT22;39093;52.788;6.940;2023-07-20T02:25:59;15.40;99.90
53208;DHT22;39093;52.788;6.940;2023-07-20T02:28:26;15.40;99.90
53208;DHT22;39093;52.788;6.940;2023-07-20T02:30:53;15.30;99.90
53208;DHT22;39093;52.788;6.940;2023-07-20T02:33:20;15.30;99.90
53208;DHT22;39093;52.788;6.940;2023-07-20T02:35:48;15.30;99.90
53208;DHT22;39093;52.788;6.940;2023-07-20T02:38:15;15.20;99.90
53208;DHT22;39093;52.788;6.940;2023-07-20T02:40:44;15.20;99.90
53208;DHT22;39093;52.788;6.940;2023-07-20T02:43:13;15.10;99.90
53208;DHT22;39093;52.788;6.940;2023-07-20T02:45:44;15.10;99.90
53208;DHT22;39093;52.788;6.940;2023-07-20T02:48:11;15.10;99.90
53208;DHT22;39093;52.788;6.940;2023-07-20T02:50:38;15.10;99.90
53208;DHT22;39093;52.788;6.940;2023-07-20T02:53:05;15.00;99.90
53208;DHT22;39093;52.788;6.940;2023-07-20T02:55:31;15.00;99.90
53208;DHT22;39093;52.788;6.940;2023-07-20T02:57:58;15.00;99.90
53208;DHT22;39093;52.788;6.940;2023-07-20T03:00:25;14.90;99.90
53208;DHT22;39093;52.788;6.940;2023-07-20T03:02:52;14.90;99.90
53208;DHT22;39093;52.788;6.940;2023-07-20T03:05:23;14.90;99.90
53208;DHT22;39093;52.788;6.940;2023-07-20T03:08:00;14.90;99.90
53208;DHT22;39093;52.788;6.940;2023-07-20T03:10:29;14.80;99.90
53208;DHT22;39093;52.788;6.940;2023-07-20T03:12:56;14.80;99.90
53208;DHT22;39093;52.788;6.940;2023-07-20T03:15:23;14.80;99.90
53208;DHT22;39093;52.788;6.940;2023-07-20T03:17:49;14.80;99.90
53208;DHT22;39093;52.788;6.940;2023-07-20T03:20:17;14.70;99.90
53208;DHT22;39093;52.788;6.940;2023-07-20T03:22:47;14.70;99.90
53208;DHT22;39093;52.788;6.940;2023-07-20T03:25:14;14.70;99.90
53208;DHT22;39093;52.788;6.940;2023-07-20T03:27:41;14.70;99.90
53208;DHT22;39093;52.788;6.940;2023-07-20T03:30:08;14.70;99.90
53208;DHT22;39093;52.788;6.940;2023-07-20T03:32:36;14.70;99.90
53208;DHT22;39093;52.788;6.940;2023-07-20T03:35:03;14.60;99.90
53208;DHT22;39093;52.788;6.940;2023-07-20T03:37:31;14.60;99.90
53208;DHT22;39093;52.788;6.940;2023-07-20T03:39:58;14.60;99.90
53208;DHT22;39093;52.788;6.940;2023-07-20T03:42:25;14.60;99.90
53208;DHT22;39093;52.788;6.940;2023-07-20T03:44:52;14.50;99.90
53208;DHT22;39093;52.788;6.940;2023-07-20T03:47:19;14.50;99.90
53208;DHT22;39093;52.788;6.940;2023-07-20T03:49:46;14.50;99.90
53208;DHT22;39093;52.788;6.940;2023-07-20T03:52:13;14.40;99.90
53208;DHT22;39093;52.788;6.940;2023-07-20T03:54:42;14.40;99.90
53208;DHT22;39093;52.788;6.940;2023-07-20T03:57:11;14.40;99.90
53208;DHT22;39093;52.788;6.940;2023-07-20T03:59:40;14.40;99.90
53208;DHT22;39093;52.788;6.940;2023-07-20T04:02:12;14.40;99.90
53208;DHT22;39093;52.788;6.940;2023-07-20T04:04:40;14.40;99.90
53208;DHT22;39093;52.788;6.940;2023-07-20T04:07:09;14.30;99.90
53208;DHT22;39093;52.788;6.940;2023-07-20T04:09:36;14.30;99.90
53208;DHT22;39093;52.788;6.940;2023-07-20T04:12:03;14.30;99.90
53208;DHT22;39093;52.788;6.940;2023-07-20T04:14:30;14.30;99.90
53208;DHT22;39093;52.788;6.940;2023-07-20T04:16:57;14.30;99.90
53208;DHT22;39093;52.788;6.940;2023-07-20T04:19:24;14.30;99.90
53208;DHT22;39093;52.788;6.940;2023-07-20T04:21:51;14.30;99.90
53208;DHT22;39093;52.788;6.940;2023-07-20T04:24:18;14.30;99.90
53208;DHT22;39093;52.788;6.940;2023-07-20T04:26:45;14.30;99.90
53208;DHT22;39093;52.788;6.940;2023-07-20T04:29:14;14.30;99.90
53208;DHT22;39093;52.788;6.940;2023-07-20T04:31:43;14.30;99.90
53208;DHT22;39093;52.788;6.940;2023-07-20T04:34:12;14.30;99.90
53208;DHT22;39093;52.788;6.940;2023-07-20T04:36:39;14.30;99.90
53208;DHT22;39093;52.788;6.940;2023-07-20T04:39:10;14.30;99.90
53208;DHT22;39093;52.788;6.940;2023-07-20T04:41:51;14.30;99.90
53208;DHT22;39093;52.788;6.940;2023-07-20T04:44:18;14.30;99.90
53208;DHT22;39093;52.788;6.940;2023-07-20T04:46:45;14.20;99.90
53208;DHT22;39093;52.788;6.940;2023-07-20T04:49:13;14.40;99.90
53208;DHT22;39093;52.788;6.940;2023-07-20T04:51:40;14.40;99.90
53208;DHT22;39093;52.788;6.940;2023-07-20T04:54:09;14.40;99.90
53208;DHT22;39093;52.788;6.940;2023-07-20T04:56:36;14.40;99.90
53208;DHT22;39093;52.788;6.940;2023-07-20T04:59:03;14.40;99.90
53208;DHT22;39093;52.788;6.940;2023-07-20T05:01:30;14.40;99.90
53208;DHT22;39093;52.788;6.940;2023-07-20T05:03:57;14.40;99.90
53208;DHT22;39093;52.788;6.940;2023-07-20T05:06:24;14.40;99.90
53208;DHT22;39093;52.788;6.940;2023-07-20T05:08:52;14.40;99.90
53208;DHT22;39093;52.788;6.940;2023-07-20T05:11:19;14.40;99.90
53208;DHT22;39093;52.788;6.940;2023-07-20T05:13:46;14.40;99.90
53208;DHT22;39093;52.788;6.940;2023-07-20T05:16:13;14.40;99.90
53208;DHT22;39093;52.788;6.940;2023-07-20T05:18:40;14.40;99.90
53208;DHT22;39093;52.788;6.940;2023-07-20T05:21:07;14.40;99.90
53208;DHT22;39093;52.788;6.940;2023-07-20T05:23:34;14.50;99.90
53208;DHT22;39093;52.788;6.940;2023-07-20T05:26:01;14.50;99.90
53208;DHT22;39093;52.788;6.940;2023-07-20T05:28:29;14.50;99.90
53208;DHT22;39093;52.788;6.940;2023-07-20T05:30:56;14.50;99.90
53208;DHT22;39093;52.788;6.940;2023-07-20T05:33:23;14.50;99.90
53208;DHT22;39093;52.788;6.940;2023-07-20T05:35:50;14.60;99.90
53208;DHT22;39093;52.788;6.940;2023-07-20T05:38:17;14.60;99.90
53208;DHT22;39093;52.788;6.940;2023-07-20T05:40:44;14.60;99.90
53208;DHT22;39093;52.788;6.940;2023-07-20T05:43:11;14.70;99.90
53208;DHT22;39093;52.788;6.940;2023-07-20T05:45:42;14.70;99.90
53208;DHT22;39093;52.788;6.940;2023-07-20T05:48:09;14.70;99.90
53208;DHT22;39093;52.788;6.940;2023-07-20T05:50:42;14.70;99.90
53208;DHT22;39093;52.788;6.940;2023-07-20T05:53:12;14.80;99.90
53208;DHT22;39093;52.788;6.940;2023-07-20T05:55:39;14.80;99.90
53208;DHT22;39093;52.788;6.940;2023-07-20T05:58:07;14.80;99.90
53208;DHT22;39093;52.788;6.940;2023-07-20T06:00:34;14.90;99.90
53208;DHT22;39093;52.788;6.940;2023-07-20T06:03:01;14.90;99.90
53208;DHT22;39093;52.788;6.940;2023-07-20T06:05:29;15.00;99.90
53208;DHT22;39093;52.788;6.940;2023-07-20T06:07:56;14.90;99.90
53208;DHT22;39093;52.788;6.940;2023-07-20T06:10:24;15.00;99.90
53208;DHT22;39093;52.788;6.940;2023-07-20T06:12:51;15.00;99.90
53208;DHT22;39093;52.788;6.940;2023-07-20T06:15:30;15.10;99.90
53208;DHT22;39093;52.788;6.940;2023-07-20T06:17:58;15.20;99.90
53208;DHT22;39093;52.788;6.940;2023-07-20T06:20:25;15.30;99.90
53208;DHT22;39093;52.788;6.940;2023-07-20T06:22:55;15.30;99.90
53208;DHT22;39093;52.788;6.940;2023-07-20T06:25:22;15.30;99.90
53208;DHT22;39093;52.788;6.940;2023-07-20T06:27:50;15.40;99.90
53208;DHT22;39093;52.788;6.940;2023-07-20T06:30:20;15.40;99.90
53208;DHT22;39093;52.788;6.940;2023-07-20T06:32:47;15.50;99.90
53208;DHT22;39093;52.788;6.940;2023-07-20T06:35:16;15.60;99.90
53208;DHT22;39093;52.788;6.940;2023-07-20T06:37:43;15.70;99.90
53208;DHT22;39093;52.788;6.940;2023-07-20T06:40:10;15.90;99.90
53208;DHT22;39093;52.788;6.940;2023-07-20T06:42:40;16.20;99.90
53208;DHT22;39093;52.788;6.940;2023-07-20T06:45:11;16.50;99.90
53208;DHT22;39093;52.788;6.940;2023-07-20T06:47:38;17.00;99.90
53208;DHT22;39093;52.788;6.940;2023-07-20T06:50:07;17.30;99.90
53208;DHT22;39093;52.788;6.940;2023-07-20T06:52:34;17.60;99.90
53208;DHT22;39093;52.788;6.940;2023-07-20T06:55:01;17.80;99.90
53208;DHT22;39093;52.788;6.940;2023-07-20T06:57:32;18.10;99.90
53208;DHT22;39093;52.788;6.940;2023-07-20T06:59:59;18.20;99.90
53208;DHT22;39093;52.788;6.940;2023-07-20T07:02:26;18.40;99.90
53208;DHT22;39093;52.788;6.940;2023-07-20T07:04:53;18.60;99.90
53208;DHT22;39093;52.788;6.940;2023-07-20T07:07:23;18.70;99.90
53208;DHT22;39093;52.788;6.940;2023-07-20T07:09:53;18.90;99.90
53208;DHT22;39093;52.788;6.940;2023-07-20T07:12:20;19.00;99.90
53208;DHT22;39093;52.788;6.940;2023-07-20T07:14:48;19.10;99.90
53208;DHT22;39093;52.788;6.940;2023-07-20T07:17:15;19.20;99.90
53208;DHT22;39093;52.788;6.940;2023-07-20T07:19:45;19.30;99.90
53208;DHT22;39093;52.788;6.940;2023-07-20T07:22:15;19.60;99.90
53208;DHT22;39093;52.788;6.940;2023-07-20T07:24:42;19.50;99.90
53208;DHT22;39093;52.788;6.940;2023-07-20T07:27:10;19.30;99.90
53208;DHT22;39093;52.788;6.940;2023-07-20T07:29:37;19.20;99.90
53208;DHT22;39093;52.788;6.940;2023-07-20T07:32:04;19.30;99.90
53208;DHT22;39093;52.788;6.940;2023-07-20T07:34:32;19.50;99.90
53208;DHT22;39093;52.788;6.940;2023-07-20T07:37:01;19.30;99.90
53208;DHT22;39093;52.788;6.940;2023-07-20T07:39:28;19.30;99.90
53208;DHT22;39093;52.788;6.940;2023-07-20T07:42:01;19.40;99.90
53208;DHT22;39093;52.788;6.940;2023-07-20T07:44:28;19.30;99.90
53208;DHT22;39093;52.788;6.940;2023-07-20T07:46:55;19.10;99.90
53208;DHT22;39093;52.788;6.940;2023-07-20T07:49:22;18.80;99.90
53208;DHT22;39093;52.788;6.940;2023-07-20T07:51:49;18.70;99.90
53208;DHT22;39093;52.788;6.940;2023-07-20T07:54:16;18.50;99.90
53208;DHT22;39093;52.788;6.940;2023-07-20T07:56:43;18.30;99.90
53208;DHT22;39093;52.788;6.940;2023-07-20T07:59:11;18.40;99.90
53208;DHT22;39093;52.788;6.940;2023-07-20T08:01:38;18.50;99.90
53208;DHT22;39093;52.788;6.940;2023-07-20T08:04:05;18.80;99.90
53208;DHT22;39093;52.788;6.940;2023-07-20T08:06:32;19.00;99.90
53208;DHT22;39093;52.788;6.940;2023-07-20T08:09:00;19.00;99.90
53208;DHT22;39093;52.788;6.940;2023-07-20T08:11:27;19.20;99.90
53208;DHT22;39093;52.788;6.940;2023-07-20T08:13:57;19.40;99.90
53208;DHT22;39093;52.788;6.940;2023-07-20T08:16:24;19.40;99.90
53208;DHT22;39093;52.788;6.940;2023-07-20T08:18:51;19.60;99.90
53208;DHT22;39093;52.788;6.940;2023-07-20T08:21:21;19.90;99.90
53208;DHT22;39093;52.788;6.940;2023-07-20T08:23:48;20.00;99.90
53208;DHT22;39093;52.788;6.940;2023-07-20T08:26:15;19.80;99.90
53208;DHT22;39093;52.788;6.940;2023-07-20T08:28:44;19.80;99.90
53208;DHT22;39093;52.788;6.940;2023-07-20T08:31:12;19.50;99.90
53208;DHT22;39093;52.788;6.940;2023-07-20T08:33:42;19.40;99.90
53208;DHT22;39093;52.788;6.940;2023-07-20T08:36:09;19.40;99.90
53208;DHT22;39093;52.788;6.940;2023-07-20T08:38:37;19.40;99.90
53208;DHT22;39093;52.788;6.940;2023-07-20T08:41:05;19.50;99.90
53208;DHT22;39093;52.788;6.940;2023-07-20T08:43:33;19.60;99.90
53208;DHT22;39093;52.788;6.940;2023-07-20T08:46:00;19.60;99.90
53208;DHT22;39093;52.788;6.940;2023-07-20T08:48:31;19.60;99.40
53208;DHT22;39093;52.788;6.940;2023-07-20T08:50:58;19.50;99.40
53208;DHT22;39093;52.788;6.940;2023-07-20T08:53:28;19.50;99.30
53208;DHT22;39093;52.788;6.940;2023-07-20T08:55:56;19.70;99.40
53208;DHT22;39093;52.788;6.940;2023-07-20T08:58:25;19.80;98.90
53208;DHT22;39093;52.788;6.940;2023-07-20T09:00:53;19.80;99.20
53208;DHT22;39093;52.788;6.940;2023-07-20T09:03:22;20.00;98.80
53208;DHT22;39093;52.788;6.940;2023-07-20T09:05:49;20.10;98.70
53208;DHT22;39093;52.788;6.940;2023-07-20T09:08:16;20.20;99.00
53208;DHT22;39093;52.788;6.940;2023-07-20T09:10:43;20.40;98.60
53208;DHT22;39093;52.788;6.940;2023-07-20T09:13:14;20.40;98.50
53208;DHT22;39093;52.788;6.940;2023-07-20T09:15:46;20.40;97.80
53208;DHT22;39093;52.788;6.940;2023-07-20T09:18:24;20.40;98.10
53208;DHT22;39093;52.788;6.940;2023-07-20T09:20:51;20.40;97.90
53208;DHT22;39093;52.788;6.940;2023-07-20T09:23:18;20.40;97.80
53208;DHT22;39093;52.788;6.940;2023-07-20T09:25:48;20.30;97.40
53208;DHT22;39093;52.788;6.940;2023-07-20T09:28:17;20.40;97.20
53208;DHT22;39093;52.788;6.940;2023-07-20T09:30:45;20.30;97.00
53208;DHT22;39093;52.788;6.940;2023-07-20T09:33:21;20.40;96.60
53208;DHT22;39093;52.788;6.940;2023-07-20T09:35:52;20.50;95.60
53208;DHT22;39093;52.788;6.940;2023-07-20T09:38:21;20.50;96.40
53208;DHT22;39093;52.788;6.940;2023-07-20T09:40:51;20.60;96.60
53208;DHT22;39093;52.788;6.940;2023-07-20T09:43:21;20.70;95.70
53208;DHT22;39093;52.788;6.940;2023-07-20T09:45:58;20.70;95.60
53208;DHT22;39093;52.788;6.940;2023-07-20T09:48:25;20.70;95.60
53208;DHT22;39093;52.788;6.940;2023-07-20T09:50:59;20.70;95.60
53208;DHT22;39093;52.788;6.940;2023-07-20T09:53:26;20.90;94.20
53208;DHT22;39093;52.788;6.940;2023-07-20T09:55:54;20.90;95.10
53208;DHT22;39093;52.788;6.940;2023-07-20T09:58:22;20.90;95.20
53208;DHT22;39093;52.788;6.940;2023-07-20T10:00:51;20.90;94.50
53208;DHT22;39093;52.788;6.940;2023-07-20T10:03:21;21.00;94.00
53208;DHT22;39093;52.788;6.940;2023-07-20T10:05:56;21.10;93.30
53208;DHT22;39093;52.788;6.940;2023-07-20T10:08:28;21.20;93.50
53208;DHT22;39093;52.788;6.940;2023-07-20T10:11:00;21.30;93.80
53208;DHT22;39093;52.788;6.940;2023-07-20T10:13:29;21.40;93.50
53208;DHT22;39093;52.788;6.940;2023-07-20T10:16:10;21.40;92.50
53208;DHT22;39093;52.788;6.940;2023-07-20T10:21:29;21.80;93.10
53208;DHT22;39093;52.788;6.940;2023-07-20T10:24:00;22.10;93.10
53208;DHT22;39093;52.788;6.940;2023-07-20T10:26:27;22.20;91.80
53208;DHT22;39093;52.788;6.940;2023-07-20T10:28:55;22.20;91.40
53208;DHT22;39093;52.788;6.940;2023-07-20T10:31:23;21.90;91.30
53208;DHT22;39093;52.788;6.940;2023-07-20T10:33:51;21.80;91.60
53208;DHT22;39093;52.788;6.940;2023-07-20T10:36:25;21.60;91.60
53208;DHT22;39093;52.788;6.940;2023-07-20T10:38:57;21.50;91.50
53208;DHT22;39093;52.788;6.940;2023-07-20T10:41:39;21.50;92.10
53208;DHT22;39093;52.788;6.940;2023-07-20T10:44:10;21.50;90.90
53208;DHT22;39093;52.788;6.940;2023-07-20T10:49:09;21.50;91.50
53208;DHT22;39093;52.788;6.940;2023-07-20T10:51:47;21.60;91.80
53208;DHT22;39093;52.788;6.940;2023-07-20T10:56:47;21.80;90.30
53208;DHT22;39093;52.788;6.940;2023-07-20T10:59:37;22.00;90.70
53208;DHT22;39093;52.788;6.940;2023-07-20T11:02:11;22.10;91.80
53208;DHT22;39093;52.788;6.940;2023-07-20T11:04:41;22.40;91.10
53208;DHT22;39093;52.788;6.940;2023-07-20T11:07:08;22.30;91.30
53208;DHT22;39093;52.788;6.940;2023-07-20T11:09:37;22.20;91.20
53208;DHT22;39093;52.788;6.940;2023-07-20T11:12:15;22.10;91.60
53208;DHT22;39093;52.788;6.940;2023-07-20T11:15:03;22.10;90.80
53208;DHT22;39093;52.788;6.940;2023-07-20T11:17:31;21.90;91.10
53208;DHT22;39093;52.788;6.940;2023-07-20T11:20:00;21.70;91.50
53208;DHT22;39093;52.788;6.940;2023-07-20T11:22:33;21.70;91.70
53208;DHT22;39093;52.788;6.940;2023-07-20T11:25:01;21.50;92.50
53208;DHT22;39093;52.788;6.940;2023-07-20T11:27:28;21.60;92.30
53208;DHT22;39093;52.788;6.940;2023-07-20T11:29:56;21.40;92.20
53208;DHT22;39093;52.788;6.940;2023-07-20T11:32:24;21.30;92.80
53208;DHT22;39093;52.788;6.940;2023-07-20T11:34:51;21.20;93.70
53208;DHT22;39093;52.788;6.940;2023-07-20T11:37:19;21.20;93.40
53208;DHT22;39093;52.788;6.940;2023-07-20T11:39:46;21.30;93.30
53208;DHT22;39093;52.788;6.940;2023-07-20T11:42:13;21.20;93.90
53208;DHT22;39093;52.788;6.940;2023-07-20T11:45:05;21.30;94.10
53208;DHT22;39093;52.788;6.940;2023-07-20T11:47:33;21.40;93.00
53208;DHT22;39093;52.788;6.940;2023-07-20T11:50:04;21.30;93.50
53208;DHT22;39093;52.788;6.940;2023-07-20T11:52:31;21.20;93.40
53208;DHT22;39093;52.788;6.940;2023-07-20T11:55:01;21.10;93.30
53208;DHT22;39093;52.788;6.940;2023-07-20T11:57:29;21.10;93.60
53208;DHT22;39093;52.788;6.940;2023-07-20T12:00:03;21.20;94.20
53208;DHT22;39093;52.788;6.940;2023-07-20T12:02:38;21.40;92.90
53208;DHT22;39093;52.788;6.940;2023-07-20T12:05:14;21.60;92.50
53208;DHT22;39093;52.788;6.940;2023-07-20T12:07:41;21.60;92.70
53208;DHT22;39093;52.788;6.940;2023-07-20T12:10:10;21.50;92.60
53208;DHT22;39093;52.788;6.940;2023-07-20T12:12:39;21.60;92.70
53208;DHT22;39093;52.788;6.940;2023-07-20T12:17:50;21.60;92.90
53208;DHT22;39093;52.788;6.940;2023-07-20T12:20:44;21.70;93.10
53208;DHT22;39093;52.788;6.940;2023-07-20T12:23:12;21.80;94.10
53208;DHT22;39093;52.788;6.940;2023-07-20T12:25:40;22.00;93.10
53208;DHT22;39093;52.788;6.940;2023-07-20T12:28:10;22.50;92.10
53208;DHT22;39093;52.788;6.940;2023-07-20T12:30:38;22.70;92.20
53208;DHT22;39093;52.788;6.940;2023-07-20T12:33:05;22.90;92.30
53208;DHT22;39093;52.788;6.940;2023-07-20T12:35:34;23.10;92.10
53208;DHT22;39093;52.788;6.940;2023-07-20T12:38:01;23.40;90.80
53208;DHT22;39093;52.788;6.940;2023-07-20T12:40:29;23.60;91.70
53208;DHT22;39093;52.788;6.940;2023-07-20T12:42:56;23.80;92.20
53208;DHT22;39093;52.788;6.940;2023-07-20T12:45:23;23.90;91.80
53208;DHT22;39093;52.788;6.940;2023-07-20T12:47:50;23.90;91.40
53208;DHT22;39093;52.788;6.940;2023-07-20T12:50:17;23.90;90.60
53208;DHT22;39093;52.788;6.940;2023-07-20T12:52:44;23.80;91.80
53208;DHT22;39093;52.788;6.940;2023-07-20T12:55:11;24.10;90.40
53208;DHT22;39093;52.788;6.940;2023-07-20T12:57:38;24.30;90.60
53208;DHT22;39093;52.788;6.940;2023-07-20T13:00:07;24.60;91.40
53208;DHT22;39093;52.788;6.940;2023-07-20T13:02:37;24.70;90.50
53208;DHT22;39093;52.788;6.940;2023-07-20T13:05:04;24.70;87.60
53208;DHT22;39093;52.788;6.940;2023-07-20T13:07:33;24.30;89.70
53208;DHT22;39093;52.788;6.940;2023-07-20T13:10:04;24.20;88.70
53208;DHT22;39093;52.788;6.940;2023-07-20T13:12:33;24.00;90.00
53208;DHT22;39093;52.788;6.940;2023-07-20T13:15:02;24.10;90.30
53208;DHT22;39093;52.788;6.940;2023-07-20T13:17:35;24.20;89.60
53208;DHT22;39093;52.788;6.940;2023-07-20T13:20:04;24.40;87.90
53208;DHT22;39093;52.788;6.940;2023-07-20T13:22:33;24.50;90.00
53208;DHT22;39093;52.788;6.940;2023-07-20T13:25:00;24.60;89.30
53208;DHT22;39093;52.788;6.940;2023-07-20T13:27:28;24.90;88.10
53208;DHT22;39093;52.788;6.940;2023-07-20T13:29:55;25.00;87.60
53208;DHT22;39093;52.788;6.940;2023-07-20T13:32:29;24.70;87.10
53208;DHT22;39093;52.788;6.940;2023-07-20T13:35:00;24.50;87.70
53208;DHT22;39093;52.788;6.940;2023-07-20T13:37:29;24.20;89.40
53208;DHT22;39093;52.788;6.940;2023-07-20T13:40:00;24.00;87.70
53208;DHT22;39093;52.788;6.940;2023-07-20T13:42:28;23.80;89.10
53208;DHT22;39093;52.788;6.940;2023-07-20T13:44:55;23.60;90.10
53208;DHT22;39093;52.788;6.940;2023-07-20T13:47:22;23.40;91.30
53208;DHT22;39093;52.788;6.940;2023-07-20T13:49:49;23.40;91.50
53208;DHT22;39093;52.788;6.940;2023-07-20T13:52:29;23.30;90.80
53208;DHT22;39093;52.788;6.940;2023-07-20T13:54:58;23.30;91.20
53208;DHT22;39093;52.788;6.940;2023-07-20T13:57:26;23.10;91.60
53208;DHT22;39093;52.788;6.940;2023-07-20T13:59:57;23.00;91.10
53208;DHT22;39093;52.788;6.940;2023-07-20T14:02:27;22.90;90.80
53208;DHT22;39093;52.788;6.940;2023-07-20T14:04:57;22.80;91.30
53208;DHT22;39093;52.788;6.940;2023-07-20T14:07:26;22.80;92.00
53208;DHT22;39093;52.788;6.940;2023-07-20T14:09:54;23.40;92.30
53208;DHT22;39093;52.788;6.940;2023-07-20T14:12:24;24.10;91.20
53208;DHT22;39093;52.788;6.940;2023-07-20T14:14:50;25.00;90.80
53208;DHT22;39093;52.788;6.940;2023-07-20T14:17:17;25.90;88.70
53208;DHT22;39093;52.788;6.940;2023-07-20T14:19:45;26.80;87.70
53208;DHT22;39093;52.788;6.940;2023-07-20T14:22:12;27.60;87.30
53208;DHT22;39093;52.788;6.940;2023-07-20T14:24:39;28.00;81.50
53208;DHT22;39093;52.788;6.940;2023-07-20T14:27:06;26.90;81.40
53208;DHT22;39093;52.788;6.940;2023-07-20T14:29:33;25.50;81.90
53208;DHT22;39093;52.788;6.940;2023-07-20T14:32:03;24.20;84.80
53208;DHT22;39093;52.788;6.940;2023-07-20T14:34:33;23.30;87.60
53208;DHT22;39093;52.788;6.940;2023-07-20T14:37:05;22.60;89.00
53208;DHT22;39093;52.788;6.940;2023-07-20T14:39:32;22.30;90.50
53208;DHT22;39093;52.788;6.940;2023-07-20T14:42:03;22.70;90.60
53208;DHT22;39093;52.788;6.940;2023-07-20T14:44:32;23.80;90.00
53208;DHT22;39093;52.788;6.940;2023-07-20T14:46:59;24.00;88.80
53208;DHT22;39093;52.788;6.940;2023-07-20T14:49:40;23.70;89.80
53208;DHT22;39093;52.788;6.940;2023-07-20T14:52:07;23.10;90.40
53208;DHT22;39093;52.788;6.940;2023-07-20T14:54:37;22.90;90.40
53208;DHT22;39093;52.788;6.940;2023-07-20T14:57:04;23.10;90.70
53208;DHT22;39093;52.788;6.940;2023-07-20T14:59:31;23.90;91.20
53208;DHT22;39093;52.788;6.940;2023-07-20T15:01:58;25.00;89.90
53208;DHT22;39093;52.788;6.940;2023-07-20T15:04:25;25.70;89.10
53208;DHT22;39093;52.788;6.940;2023-07-20T15:06:55;26.40;88.70
53208;DHT22;39093;52.788;6.940;2023-07-20T15:09:24;26.90;88.10
53208;DHT22;39093;52.788;6.940;2023-07-20T15:11:51;27.50;87.40
53208;DHT22;39093;52.788;6.940;2023-07-20T15:14:18;27.50;83.60
53208;DHT22;39093;52.788;6.940;2023-07-20T15:16:45;27.60;81.40
53208;DHT22;39093;52.788;6.940;2023-07-20T15:19:15;27.30;81.90
53208;DHT22;39093;52.788;6.940;2023-07-20T15:21:43;26.40;82.20
53208;DHT22;39093;52.788;6.940;2023-07-20T15:24:10;25.50;83.20
53208;DHT22;39093;52.788;6.940;2023-07-20T15:26:38;24.60;85.20
53208;DHT22;39093;52.788;6.940;2023-07-20T15:29:05;23.90;86.70
53208;DHT22;39093;52.788;6.940;2023-07-20T15:31:32;23.40;86.70
53208;DHT22;39093;52.788;6.940;2023-07-20T15:34:02;22.90;88.40
53208;DHT22;39093;52.788;6.940;2023-07-20T15:36:30;22.60;90.00
53208;DHT22;39093;52.788;6.940;2023-07-20T15:38:57;22.40;89.90
53208;DHT22;39093;52.788;6.940;2023-07-20T15:41:26;22.20;90.10
53208;DHT22;39093;52.788;6.940;2023-07-20T15:43:54;22.10;90.90
53208;DHT22;39093;52.788;6.940;2023-07-20T15:49:03;22.10;90.70
53208;DHT22;39093;52.788;6.940;2023-07-20T15:51:30;22.20;90.80
53208;DHT22;39093;52.788;6.940;2023-07-20T15:53:57;22.30;90.90
53208;DHT22;39093;52.788;6.940;2023-07-20T15:56:24;22.20;90.90
53208;DHT22;39093;52.788;6.940;2023-07-20T15:58:51;22.10;91.00